Time;durP1;ratioP1;P1;durP2;ratioP2;P2;SDS_P1;SDS_P2;PMS_P1;PMS_P2;Temp;Humidity;BMP_temperature;BMP_pressure;BME280_temperature;BME280_humidity;BME280_pressure;Samples;Min_cycle;Max_cycle;Signal;HPM_P1;HPM_P2
2020/12/07 00:00:11;;;;;;;21.92;15.20;;;7.50;99.90;;;;;;4991522;28;20228;-77
2020/12/07 00:02:38;;;;;;;18.75;16.52;;;7.40;99.90;;;;;;4991664;28;20171;-77
2020/12/07 00:05:04;;;;;;;21.40;15.82;;;7.40;99.90;;;;;;4992878;28;20633;-76
2020/12/07 00:07:30;;;;;;;21.52;14.95;;;7.40;99.90;;;;;;4993218;28;20238;-79
2020/12/07 00:09:56;;;;;;;20.27;15.47;;;7.40;99.90;;;;;;4991965;28;20175;-81
2020/12/07 00:12:27;;;;;;;19.75;15.32;;;7.40;99.90;;;;;;4992671;28;20578;-80
2020/12/07 00:14:53;;;;;;;20.98;18.33;;;7.40;99.90;;;;;;4992439;28;20171;-81
2020/12/07 00:17:20;;;;;;;20.30;16.63;;;7.40;99.90;;;;;;4991054;28;20241;-80
2020/12/07 00:19:47;;;;;;;18.80;15.88;;;7.40;99.90;;;;;;4992368;28;20653;-80
2020/12/07 00:22:24;;;;;;;17.63;15.50;;;7.40;99.90;;;;;;4993064;28;20167;-80
2020/12/07 00:24:51;;;;;;;20.00;15.85;;;7.40;99.90;;;;;;4991835;28;20248;-80
2020/12/07 00:27:24;;;;;;;19.40;16.50;;;7.40;99.90;;;;;;4986612;28;20698;-80
2020/12/07 00:29:54;;;;;;;21.38;16.23;;;7.40;99.90;;;;;;4971468;28;20182;-80
2020/12/07 00:32:21;;;;;;;23.42;16.10;;;7.40;99.90;;;;;;4987541;28;20226;-80
2020/12/07 00:34:47;;;;;;;16.67;14.98;;;7.40;99.90;;;;;;4987553;28;20263;-80
2020/12/07 00:37:13;;;;;;;17.38;13.50;;;7.40;99.90;;;;;;4972163;28;20211;-79
2020/12/07 00:39:39;;;;;;;16.13;13.35;;;7.40;99.90;;;;;;4955253;28;20183;-81
2020/12/07 00:42:09;;;;;;;17.95;13.35;;;7.40;99.90;;;;;;4987466;28;20214;-82
2020/12/07 00:44:38;;;;;;;17.67;13.68;;;7.30;99.90;;;;;;4987499;28;20179;-82
2020/12/07 00:47:05;;;;;;;15.07;12.88;;;7.40;99.90;;;;;;4971108;28;20294;-81
2020/12/07 00:49:32;;;;;;;19.55;14.02;;;7.40;99.90;;;;;;4971210;28;20208;-81
2020/12/07 00:51:58;;;;;;;13.70;12.15;;;7.40;99.90;;;;;;4972330;28;20168;-81
2020/12/07 00:54:24;;;;;;;14.38;12.32;;;7.40;99.90;;;;;;4987333;28;20792;-81
2020/12/07 00:56:58;;;;;;;12.25;10.60;;;7.40;99.90;;;;;;4972514;28;20203;-81
2020/12/07 00:59:29;;;;;;;13.40;12.00;;;7.40;99.90;;;;;;4989152;28;20219;-81
2020/12/07 01:01:57;;;;;;;12.43;10.98;;;7.40;99.90;;;;;;4990599;28;20654;-81
2020/12/07 01:04:24;;;;;;;12.80;11.50;;;7.40;99.90;;;;;;4987281;28;20554;-82
2020/12/07 01:06:50;;;;;;;13.10;11.70;;;7.40;99.90;;;;;;4987194;28;20199;-82
2020/12/07 01:09:18;;;;;;;11.80;10.43;;;7.40;99.90;;;;;;4987054;28;20227;-81
2020/12/07 01:11:45;;;;;;;13.10;11.75;;;7.40;99.90;;;;;;4972380;28;20175;-81
2020/12/07 01:14:13;;;;;;;14.07;11.80;;;7.40;99.90;;;;;;4987637;28;20184;-80
2020/12/07 01:16:40;;;;;;;12.48;10.43;;;7.40;99.90;;;;;;4971182;28;20261;-81
2020/12/07 01:19:07;;;;;;;13.80;12.40;;;7.30;99.90;;;;;;4988265;28;20263;-81
2020/12/07 01:21:37;;;;;;;13.35;11.95;;;7.30;99.90;;;;;;4996969;28;20175;-81
2020/12/07 01:24:04;;;;;;;15.13;12.60;;;7.30;99.90;;;;;;4998451;28;20195;-80
2020/12/07 01:26:32;;;;;;;15.75;13.43;;;7.30;99.90;;;;;;4998562;28;20226;-81
2020/12/07 01:28:59;;;;;;;14.77;13.38;;;7.30;99.90;;;;;;4996128;28;20184;-81
2020/12/07 01:31:26;;;;;;;16.60;13.68;;;7.30;99.90;;;;;;4995164;28;20200;-81
2020/12/07 01:33:52;;;;;;;17.77;15.50;;;7.30;99.90;;;;;;4979081;28;20214;-81
2020/12/07 01:36:18;;;;;;;16.67;14.98;;;7.30;99.90;;;;;;4996758;28;20696;-81
2020/12/07 01:38:46;;;;;;;16.17;14.05;;;7.30;99.90;;;;;;4989674;28;20191;-81
2020/12/07 01:41:12;;;;;;;16.10;14.18;;;7.20;99.90;;;;;;5005474;28;20172;-81
2020/12/07 01:43:38;;;;;;;15.73;13.40;;;7.20;99.90;;;;;;4988473;28;20234;-81
2020/12/07 01:46:06;;;;;;;18.35;15.88;;;7.20;99.90;;;;;;5002434;28;20191;-81
2020/12/07 01:48:32;;;;;;;17.13;15.00;;;7.20;99.90;;;;;;5002802;28;20164;-81
2020/12/07 01:51:04;;;;;;;17.42;14.93;;;7.20;99.90;;;;;;5002261;28;20191;-81
2020/12/07 01:53:32;;;;;;;18.75;14.75;;;7.20;99.90;;;;;;4987813;28;20210;-81
2020/12/07 01:55:58;;;;;;;15.88;14.27;;;7.10;99.90;;;;;;5001444;28;20207;-81
2020/12/07 01:58:24;;;;;;;17.02;15.07;;;7.10;99.90;;;;;;4994949;28;20171;-79
2020/12/07 02:00:50;;;;;;;17.42;15.30;;;7.10;99.90;;;;;;4977999;28;20649;-81
2020/12/07 02:03:16;;;;;;;15.15;13.65;;;7.10;99.90;;;;;;4993485;28;20536;-81
2020/12/07 02:05:42;;;;;;;14.83;13.27;;;7.10;99.90;;;;;;4993111;28;20198;-81
2020/12/07 02:08:18;;;;;;;15.48;13.90;;;7.10;99.90;;;;;;4976539;28;20599;-81
2020/12/07 02:11:10;;;;;;;19.25;16.33;;;7.10;99.90;;;;;;4976788;28;20560;-81
2020/12/07 02:13:38;;;;;;;17.27;15.00;;;7.10;99.90;;;;;;4993589;28;20176;-81
2020/12/07 02:16:05;;;;;;;16.35;14.65;;;7.10;99.90;;;;;;4996188;28;20234;-81
2020/12/07 02:18:50;;;;;;;14.05;11.82;;;7.10;99.90;;;;;;4992672;28;20544;-81
2020/12/07 02:21:16;;;;;;;14.68;13.15;;;7.10;99.90;;;;;;4992954;28;20200;-81
2020/12/07 02:24:20;;;;;;;15.48;13.88;;;7.10;99.90;;;;;;4971161;28;20167;-81
2020/12/07 02:26:55;;;;;;;18.38;13.98;;;7.10;99.90;;;;;;4992820;28;20230;-81
2020/12/07 02:29:29;;;;;;;19.52;14.45;;;7.10;99.90;;;;;;4992566;28;20197;-81
2020/12/07 02:32:13;;;;;;;16.25;14.57;;;7.10;99.90;;;;;;4992681;28;20167;-81
2020/12/07 02:34:43;;;;;;;16.90;14.38;;;7.10;99.90;;;;;;4976475;28;20334;-81
2020/12/07 02:37:10;;;;;;;17.30;15.50;;;7.10;99.90;;;;;;4992635;28;20708;-81
2020/12/07 02:39:37;;;;;;;14.75;13.10;;;7.10;99.90;;;;;;4976816;28;20522;-81
2020/12/07 02:42:05;;;;;;;17.63;14.68;;;7.10;99.90;;;;;;4993111;28;20202;-81
2020/12/07 02:44:31;;;;;;;20.70;17.13;;;7.10;99.90;;;;;;4976975;28;20175;-81
2020/12/07 02:47:06;;;;;;;17.80;14.85;;;7.10;99.90;;;;;;4993014;28;20206;-81
2020/12/07 02:49:32;;;;;;;24.50;16.03;;;7.10;99.90;;;;;;4989764;28;20701;-81
2020/12/07 02:51:59;;;;;;;19.52;16.67;;;7.10;99.90;;;;;;4995487;28;20175;-81
2020/12/07 02:54:31;;;;;;;18.83;15.10;;;7.00;99.90;;;;;;4990073;28;20175;-82
2020/12/07 02:56:59;;;;;;;21.67;17.90;;;7.00;99.90;;;;;;4974651;28;20208;-81
2020/12/07 02:59:25;;;;;;;20.25;16.77;;;7.00;99.90;;;;;;4993865;28;20219;-81
2020/12/07 03:01:53;;;;;;;18.23;15.57;;;7.00;99.90;;;;;;4989196;28;20175;-81
2020/12/07 03:04:19;;;;;;;18.98;15.82;;;7.00;99.90;;;;;;4989238;28;20251;-82
2020/12/07 03:06:45;;;;;;;19.50;15.52;;;7.00;99.90;;;;;;4973024;28;20191;-82
2020/12/07 03:09:11;;;;;;;20.57;16.30;;;7.00;99.90;;;;;;4989140;28;20552;-82
2020/12/07 03:11:37;;;;;;;20.70;16.90;;;7.00;99.90;;;;;;4956840;28;20583;-82
2020/12/07 03:14:03;;;;;;;20.30;16.13;;;7.00;99.90;;;;;;4989363;28;20627;-82
2020/12/07 03:16:30;;;;;;;22.27;16.30;;;7.00;99.90;;;;;;4972844;28;20286;-82
2020/12/07 03:18:56;;;;;;;20.13;16.15;;;7.00;99.90;;;;;;4988865;28;20160;-82
2020/12/07 03:21:24;;;;;;;20.35;15.23;;;7.00;99.90;;;;;;4989119;28;20231;-82
2020/12/07 03:23:56;;;;;;;21.15;18.13;;;6.90;99.90;;;;;;4974236;28;20167;-82
2020/12/07 03:26:25;;;;;;;17.08;14.90;;;6.90;99.90;;;;;;4972612;28;20195;-82
2020/12/07 03:28:51;;;;;;;20.23;16.67;;;6.90;99.90;;;;;;4978041;28;20696;-82
2020/12/07 03:31:18;;;;;;;20.05;15.55;;;7.00;99.90;;;;;;4972610;28;20180;-82
2020/12/07 03:33:45;;;;;;;20.30;16.33;;;7.00;99.90;;;;;;4988826;28;20172;-82
2020/12/07 03:36:13;;;;;;;19.88;15.25;;;6.90;99.90;;;;;;4972359;28;20211;-82
2020/12/07 03:38:39;;;;;;;19.50;16.30;;;6.90;99.90;;;;;;4988319;28;20553;-81
2020/12/07 03:41:05;;;;;;;20.93;15.40;;;6.90;99.90;;;;;;4988591;28;20265;-82
2020/12/07 03:43:36;;;;;;;16.63;13.98;;;6.90;99.90;;;;;;4988922;28;20589;-82
2020/12/07 03:46:02;;;;;;;21.60;16.93;;;6.90;99.90;;;;;;4973709;28;20192;-81
2020/12/07 03:48:30;;;;;;;18.52;16.48;;;6.90;99.90;;;;;;4971983;28;20590;-81
2020/12/07 03:50:56;;;;;;;20.27;17.17;;;6.90;99.90;;;;;;4956307;28;20176;-82
2020/12/07 03:53:24;;;;;;;21.58;18.15;;;6.90;99.90;;;;;;4972297;28;20234;-82
2020/12/07 03:55:51;;;;;;;23.73;17.73;;;6.90;99.90;;;;;;4972019;28;20211;-81
2020/12/07 03:58:22;;;;;;;21.77;17.08;;;6.90;99.90;;;;;;4988129;28;20187;-81
2020/12/07 04:00:48;;;;;;;22.17;17.83;;;6.90;99.90;;;;;;4988120;28;20172;-81
2020/12/07 04:03:15;;;;;;;21.67;17.65;;;7.00;99.90;;;;;;4973110;28;20164;-81
2020/12/07 04:05:57;;;;;;;20.27;17.33;;;6.90;99.90;;;;;;4993106;28;20192;-81
2020/12/07 04:08:24;;;;;;;23.15;17.73;;;7.00;99.90;;;;;;4987790;28;20179;-81
2020/12/07 04:10:49;;;;;;;19.03;16.87;;;7.00;99.90;;;;;;4973074;28;20164;-81
2020/12/07 04:13:18;;;;;;;22.92;18.08;;;7.00;99.90;;;;;;4973109;28;20572;-82
2020/12/07 04:15:45;;;;;;;20.77;16.17;;;7.00;99.90;;;;;;4972906;28;20590;-81
2020/12/07 04:18:11;;;;;;;20.37;16.93;;;7.00;99.90;;;;;;4972773;28;20203;-81
2020/12/07 04:20:39;;;;;;;23.10;17.95;;;7.00;99.90;;;;;;4987942;28;21010;-81
2020/12/07 04:23:05;;;;;;;24.73;17.70;;;7.00;99.90;;;;;;4988027;28;20654;-81
2020/12/07 04:25:31;;;;;;;18.13;15.90;;;7.10;99.90;;;;;;4971530;28;20180;-82
2020/12/07 04:27:57;;;;;;;21.63;17.00;;;7.10;99.90;;;;;;4987730;28;20625;-82
2020/12/07 04:30:28;;;;;;;21.58;18.85;;;7.10;99.90;;;;;;4972635;28;21191;-82
2020/12/07 04:32:54;;;;;;;21.10;16.73;;;7.10;99.90;;;;;;4987586;28;20668;-81
2020/12/07 04:35:20;;;;;;;24.10;18.93;;;7.10;99.90;;;;;;4972651;28;20203;-81
2020/12/07 04:37:46;;;;;;;18.23;15.70;;;7.10;99.90;;;;;;4972506;28;20178;-81
2020/12/07 04:40:12;;;;;;;19.98;17.23;;;7.10;99.90;;;;;;4987687;28;20614;-81
2020/12/07 04:42:41;;;;;;;22.27;18.00;;;7.10;99.90;;;;;;4977993;28;20175;-80
2020/12/07 04:45:09;;;;;;;18.63;16.60;;;7.10;99.90;;;;;;4972859;28;21155;-81
2020/12/07 04:47:38;;;;;;;19.60;17.05;;;7.10;99.90;;;;;;4971577;28;20587;-81
2020/12/07 04:50:06;;;;;;;19.35;16.60;;;7.20;99.90;;;;;;4987782;28;20237;-81
2020/12/07 04:52:33;;;;;;;19.00;16.65;;;7.20;99.90;;;;;;4939725;28;20222;-81
2020/12/07 04:55:04;;;;;;;20.00;16.60;;;7.10;99.90;;;;;;4987739;28;20182;-80
2020/12/07 04:57:31;;;;;;;20.02;16.63;;;7.20;99.90;;;;;;4987138;28;20486;-80
2020/12/07 04:59:58;;;;;;;22.02;17.65;;;7.20;99.90;;;;;;4972508;28;20175;-81
2020/12/07 05:02:25;;;;;;;20.88;15.85;;;7.20;99.90;;;;;;4972485;28;20172;-80
2020/12/07 05:04:53;;;;;;;19.83;17.73;;;7.20;99.90;;;;;;4972340;28;20175;-81
2020/12/07 05:07:19;;;;;;;23.02;17.73;;;7.20;99.90;;;;;;4972202;28;20338;-81
2020/12/07 05:09:45;;;;;;;20.30;18.10;;;7.20;99.90;;;;;;4955030;28;20184;-80
2020/12/07 05:12:24;;;;;;;19.98;17.33;;;7.20;99.90;;;;;;4971738;28;20543;-81
2020/12/07 05:14:50;;;;;;;20.42;16.70;;;7.20;99.90;;;;;;4972264;28;20164;-80
2020/12/07 05:17:16;;;;;;;19.88;17.15;;;7.20;99.90;;;;;;4971890;28;20222;-81
2020/12/07 05:19:46;;;;;;;19.55;15.93;;;7.20;99.90;;;;;;4977586;28;20234;-80
2020/12/07 05:22:16;;;;;;;17.35;15.43;;;7.10;99.90;;;;;;4971983;28;20517;-80
2020/12/07 05:24:42;;;;;;;17.63;15.45;;;7.10;99.90;;;;;;4972092;28;20522;-80
2020/12/07 05:27:10;;;;;;;18.63;15.48;;;7.10;99.90;;;;;;4970699;28;20564;-81
2020/12/07 05:29:48;;;;;;;18.85;16.10;;;7.10;99.90;;;;;;4986784;28;20160;-82
2020/12/07 05:32:15;;;;;;;16.83;14.32;;;7.10;99.90;;;;;;4972257;28;20229;-80
2020/12/07 05:34:41;;;;;;;19.67;16.60;;;7.10;99.90;;;;;;4970907;28;20580;-80
2020/12/07 05:37:07;;;;;;;17.43;15.60;;;7.10;99.90;;;;;;4970504;28;20635;-80
2020/12/07 05:39:33;;;;;;;18.93;15.10;;;7.10;99.90;;;;;;4986702;28;20571;-80
2020/12/07 05:42:01;;;;;;;19.10;16.92;;;7.10;99.90;;;;;;4970691;28;20654;-80
2020/12/07 05:44:29;;;;;;;18.88;16.42;;;7.10;99.90;;;;;;4971771;28;20586;-80
2020/12/07 05:46:56;;;;;;;19.25;16.80;;;7.20;99.90;;;;;;4954535;28;20200;-80
2020/12/07 05:49:24;;;;;;;17.45;15.55;;;7.10;99.90;;;;;;4971516;28;20171;-80
2020/12/07 05:52:02;;;;;;;19.98;16.75;;;7.10;99.90;;;;;;4986669;28;20175;-80
2020/12/07 05:54:29;;;;;;;19.45;15.15;;;7.10;99.90;;;;;;4986931;28;20648;-80
2020/12/07 05:57:02;;;;;;;23.02;17.98;;;7.10;99.90;;;;;;4976839;28;20199;-80
2020/12/07 05:59:31;;;;;;;19.70;15.82;;;7.10;99.90;;;;;;4986343;28;20194;-81
2020/12/07 06:01:59;;;;;;;17.83;15.88;;;7.10;99.90;;;;;;4970443;28;20682;-80
2020/12/07 06:04:27;;;;;;;17.50;13.40;;;7.10;99.90;;;;;;4986887;28;20646;-81
2020/12/07 06:06:59;;;;;;;18.83;15.57;;;7.10;99.90;;;;;;4987237;28;20191;-77
2020/12/07 06:09:26;;;;;;;19.63;16.60;;;7.10;99.90;;;;;;4986126;28;20284;-78
2020/12/07 06:12:06;;;;;;;18.98;16.23;;;7.00;99.90;;;;;;4970134;28;20226;-77
2020/12/07 06:14:32;;;;;;;17.67;14.48;;;7.00;99.90;;;;;;4971566;28;20175;-77
2020/12/07 06:16:58;;;;;;;17.08;13.48;;;7.00;99.90;;;;;;4971504;28;20230;-78
2020/12/07 06:19:24;;;;;;;15.73;13.77;;;7.00;99.90;;;;;;4971183;28;20168;-77
2020/12/07 06:21:54;;;;;;;16.50;14.30;;;7.00;99.90;;;;;;4986979;28;20592;-77
2020/12/07 06:24:21;;;;;;;20.83;15.30;;;7.00;99.90;;;;;;4972439;28;20595;-77
2020/12/07 06:27:09;;;;;;;18.70;15.63;;;7.00;99.90;;;;;;4975033;28;20188;-77
2020/12/07 06:29:35;;;;;;;22.77;20.27;;;7.00;99.90;;;;;;4989182;28;20707;-78
2020/12/07 06:32:00;;;;;;;25.70;20.73;;;7.00;99.90;;;;;;4990005;28;21309;-76
2020/12/07 06:34:38;;;;;;;19.30;16.63;;;7.00;99.90;;;;;;4993333;28;20263;-77
2020/12/07 06:37:07;;;;;;;19.55;16.00;;;7.00;99.90;;;;;;4974781;28;20638;-76
2020/12/07 06:39:42;;;;;;;19.25;15.60;;;7.10;99.90;;;;;;4973546;28;20269;-76
2020/12/07 06:42:08;;;;;;;18.65;14.80;;;7.10;99.90;;;;;;4974714;28;20163;-77
2020/12/07 06:44:34;;;;;;;17.58;15.68;;;7.20;99.90;;;;;;4957598;28;20601;-77
2020/12/07 06:47:04;;;;;;;17.17;15.03;;;7.20;99.90;;;;;;4974737;28;20226;-77
2020/12/07 06:49:49;;;;;;;19.17;13.88;;;7.20;99.90;;;;;;4989481;28;20570;-77
2020/12/07 06:52:18;;;;;;;17.40;14.18;;;7.20;99.90;;;;;;4973516;28;20267;-77
2020/12/07 06:57:31;;;;;;;20.02;14.88;;;7.30;99.90;;;;;;4989534;28;20265;-77
2020/12/07 07:00:02;;;;;;;20.02;15.65;;;7.30;99.90;;;;;;4973808;28;20168;-79
2020/12/07 07:02:29;;;;;;;17.25;15.40;;;7.30;99.90;;;;;;4974966;28;20194;-77
2020/12/07 07:04:57;;;;;;;19.02;16.00;;;7.30;99.90;;;;;;4974873;28;20889;-78
2020/12/07 07:07:25;;;;;;;17.38;15.13;;;7.30;99.90;;;;;;4989168;28;20627;-79
2020/12/07 07:09:51;;;;;;;17.55;14.23;;;7.30;99.90;;;;;;4974359;28;20176;-80
2020/12/07 07:12:18;;;;;;;20.40;16.48;;;7.40;99.90;;;;;;4988795;28;20183;-80
2020/12/07 07:14:46;;;;;;;17.90;15.93;;;7.40;99.90;;;;;;4989031;28;20180;-80
2020/12/07 07:17:12;;;;;;;18.88;14.65;;;7.40;99.90;;;;;;4973759;28;20412;-80
2020/12/07 07:19:38;;;;;;;18.13;15.20;;;7.40;99.90;;;;;;4989099;28;20267;-80
2020/12/07 07:22:04;;;;;;;15.33;13.10;;;7.40;99.90;;;;;;4989012;28;21202;-80
2020/12/07 07:24:40;;;;;;;20.63;14.57;;;7.40;99.90;;;;;;4989256;28;20654;-80
2020/12/07 07:27:58;;;;;;;16.58;14.05;;;7.40;99.90;;;;;;4991765;28;20641;-80
2020/12/07 07:29:52;;;;;;;16.27;13.50;;;7.40;99.90;;;;;;4991256;28;20181;-80
2020/12/07 07:32:19;;;;;;;14.90;12.90;;;7.40;99.90;;;;;;4991361;28;20186;-80
2020/12/07 07:34:47;;;;;;;16.65;13.75;;;7.40;99.90;;;;;;5007160;28;20587;-79
2020/12/07 07:37:14;;;;;;;17.50;14.32;;;7.40;99.90;;;;;;4992095;28;20198;-80
2020/12/07 07:39:40;;;;;;;18.02;14.43;;;7.40;99.90;;;;;;4974821;28;20182;-79
2020/12/07 07:42:11;;;;;;;17.33;13.10;;;7.40;99.90;;;;;;4985110;28;20178;-78
2020/12/07 07:44:44;;;;;;;17.08;13.73;;;7.40;99.90;;;;;;5002795;28;20181;-77
2020/12/07 07:47:18;;;;;;;14.50;12.88;;;7.40;99.90;;;;;;4992098;28;20195;-77
2020/12/07 07:50:03;;;;;;;16.00;11.98;;;7.40;99.90;;;;;;4983498;28;20635;-77
2020/12/07 08:17:17;;;;;;;13.18;9.95;;;7.50;99.90;;;;;;4992186;28;20282;-78
2020/12/07 08:19:46;;;;;;;11.52;9.07;;;7.50;99.90;;;;;;4992598;28;20175;-78
2020/12/07 08:22:17;;;;;;;13.45;9.15;;;7.50;99.90;;;;;;4991319;28;20201;-79
2020/12/07 08:25:05;;;;;;;12.00;9.05;;;7.60;99.90;;;;;;4994514;28;20179;-77
2020/12/07 08:27:35;;;;;;;11.85;8.98;;;7.60;99.90;;;;;;4992423;28;20195;-77
2020/12/07 08:30:07;;;;;;;13.18;10.13;;;7.60;99.90;;;;;;4992598;28;20186;-77
2020/12/07 08:32:34;;;;;;;14.57;9.43;;;7.60;99.90;;;;;;5007759;28;20222;-77
2020/12/07 08:35:10;;;;;;;12.35;9.75;;;7.60;99.90;;;;;;5007838;28;20254;-77
2020/12/07 08:37:45;;;;;;;10.32;8.27;;;7.60;99.90;;;;;;4991645;28;20202;-77
2020/12/07 08:40:11;;;;;;;11.95;8.95;;;7.70;99.90;;;;;;4996665;28;20178;-77
2020/12/07 08:42:37;;;;;;;15.25;10.82;;;7.70;99.90;;;;;;5006044;28;20182;-77
2020/12/07 08:45:04;;;;;;;9.03;7.93;;;7.70;99.90;;;;;;5007768;28;20259;-77
2020/12/07 08:47:30;;;;;;;11.63;8.88;;;7.70;99.90;;;;;;5022914;28;20198;-78
2020/12/07 08:49:56;;;;;;;8.63;7.73;;;7.70;99.90;;;;;;5022881;28;20182;-78
2020/12/07 08:52:21;;;;;;;10.00;7.33;;;7.70;99.90;;;;;;4991454;28;20182;-76
2020/12/07 08:54:47;;;;;;;11.00;9.00;;;7.80;99.90;;;;;;5010511;28;20175;-77
2020/12/07 08:57:13;;;;;;;12.57;8.37;;;7.80;99.90;;;;;;5025660;28;20230;-78
2020/12/07 08:59:39;;;;;;;9.90;7.70;;;7.80;99.90;;;;;;5011453;28;20581;-77
2020/12/07 09:02:06;;;;;;;9.18;7.88;;;7.80;99.90;;;;;;5032934;28;20609;-78
2020/12/07 09:04:31;;;;;;;9.38;7.65;;;7.80;99.90;;;;;;5032562;28;20163;-77
2020/12/07 09:06:57;;;;;;;8.00;6.93;;;7.80;99.90;;;;;;5017257;28;20230;-77
2020/12/07 09:09:23;;;;;;;11.30;9.50;;;7.90;99.90;;;;;;5016494;28;20182;-77
2020/12/07 09:11:50;;;;;;;10.60;8.93;;;7.80;99.90;;;;;;5015310;28;20574;-78
2020/12/07 09:14:16;;;;;;;10.45;8.50;;;7.80;99.90;;;;;;5002856;28;20550;-77
2020/12/07 09:16:42;;;;;;;10.00;8.10;;;7.80;99.90;;;;;;4993447;28;20779;-78
2020/12/07 09:19:09;;;;;;;11.43;8.65;;;7.80;99.90;;;;;;4993442;28;20645;-78
2020/12/07 09:21:35;;;;;;;8.70;7.35;;;7.80;99.90;;;;;;4993299;28;20193;-78
2020/12/07 09:24:00;;;;;;;9.80;7.23;;;7.70;99.90;;;;;;4975858;28;20167;-78
2020/12/07 09:26:27;;;;;;;7.93;6.00;;;7.60;99.90;;;;;;4993490;28;21053;-78
2020/12/07 09:28:53;;;;;;;6.13;5.50;;;7.60;99.90;;;;;;4991196;28;20190;-78
2020/12/07 09:31:19;;;;;;;5.77;5.13;;;7.60;99.90;;;;;;4992605;28;20183;-79
2020/12/07 09:33:47;;;;;;;5.13;4.60;;;7.50;99.90;;;;;;4991838;28;20171;-79
2020/12/07 09:36:12;;;;;;;6.63;4.95;;;7.50;99.90;;;;;;4990537;28;20199;-79
2020/12/07 09:38:38;;;;;;;6.63;4.70;;;7.50;99.90;;;;;;4991943;28;20177;-79
2020/12/07 09:41:04;;;;;;;6.73;5.87;;;7.50;99.90;;;;;;4995898;28;20833;-79
2020/12/07 09:43:30;;;;;;;7.13;5.27;;;7.50;99.90;;;;;;4991258;28;20166;-79
2020/12/07 09:45:55;;;;;;;5.30;4.03;;;7.50;99.90;;;;;;4989707;28;21198;-79
2020/12/07 09:48:21;;;;;;;4.07;3.63;;;7.40;99.90;;;;;;4990925;28;20556;-78
2020/12/07 09:50:47;;;;;;;4.80;3.43;;;7.50;99.90;;;;;;5005933;28;20232;-78
2020/12/07 09:53:16;;;;;;;5.20;3.77;;;7.50;99.90;;;;;;5005962;28;20219;-77
2020/12/07 09:55:44;;;;;;;4.10;3.63;;;7.50;99.90;;;;;;4990745;28;20226;-77
2020/12/07 09:58:10;;;;;;;4.00;3.20;;;7.50;99.90;;;;;;5006414;28;20178;-77
2020/12/07 10:00:36;;;;;;;4.20;3.57;;;7.50;99.90;;;;;;4994882;28;20178;-77
2020/12/07 10:03:01;;;;;;;4.40;3.20;;;7.50;99.90;;;;;;5009692;28;20170;-77
2020/12/07 10:05:27;;;;;;;6.00;2.80;;;7.50;99.90;;;;;;4993503;28;20258;-77
2020/12/07 10:07:53;;;;;;;3.40;3.00;;;7.50;99.90;;;;;;5009395;28;20660;-77
2020/12/07 10:10:19;;;;;;;3.97;3.30;;;7.50;99.90;;;;;;4994741;28;20183;-78
2020/12/07 10:12:44;;;;;;;4.93;2.90;;;7.50;99.90;;;;;;4994697;28;20179;-77
2020/12/07 10:15:10;;;;;;;3.73;3.30;;;7.50;99.90;;;;;;4993431;28;20574;-77
2020/12/07 10:17:36;;;;;;;2.97;2.37;;;7.60;99.90;;;;;;4994692;28;20187;-76
2020/12/07 10:20:03;;;;;;;3.30;3.00;;;7.70;99.90;;;;;;4994624;28;20621;-77
2020/12/07 10:22:29;;;;;;;3.85;2.80;;;7.80;99.90;;;;;;4994146;28;20170;-78
2020/12/07 10:24:55;;;;;;;11.10;3.63;;;7.80;99.90;;;;;;4994681;28;20178;-77
2020/12/07 10:27:21;;;;;;;3.80;3.30;;;7.90;99.90;;;;;;4993904;28;20621;-77
2020/12/07 10:29:46;;;;;;;3.90;3.30;;;8.00;99.90;;;;;;5009385;28;21119;-77
2020/12/07 10:32:12;;;;;;;4.53;3.47;;;8.10;99.90;;;;;;4993957;28;20245;-76
2020/12/07 10:34:38;;;;;;;5.00;3.30;;;8.10;99.90;;;;;;5002425;28;20188;-77
2020/12/07 10:37:06;;;;;;;4.57;3.70;;;8.20;99.90;;;;;;4974721;28;20305;-77
2020/12/07 10:39:32;;;;;;;4.78;4.28;;;8.30;99.90;;;;;;4989868;28;20586;-78
2020/12/07 10:41:58;;;;;;;4.30;3.50;;;8.40;99.90;;;;;;4989637;28;20279;-77
2020/12/07 10:44:25;;;;;;;4.77;4.27;;;8.40;99.90;;;;;;4974817;28;20658;-78
2020/12/07 10:46:51;;;;;;;4.78;3.78;;;8.50;99.90;;;;;;4989100;28;20195;-77
2020/12/07 10:49:17;;;;;;;5.33;4.60;;;8.50;99.90;;;;;;4973630;28;20182;-77
2020/12/07 10:51:45;;;;;;;5.27;4.00;;;8.60;99.90;;;;;;4974289;28;20175;-77
2020/12/07 10:54:11;;;;;;;4.43;3.92;;;8.60;99.90;;;;;;4977622;28;20172;-77
2020/12/07 10:56:36;;;;;;;5.50;4.13;;;8.60;99.90;;;;;;4974553;28;20743;-77
2020/12/07 10:59:02;;;;;;;6.00;4.70;;;8.70;99.90;;;;;;4989400;28;20203;-77
2020/12/07 11:01:28;;;;;;;5.53;5.03;;;8.70;99.90;;;;;;4989427;28;20163;-77
2020/12/07 11:03:53;;;;;;;5.23;4.57;;;8.70;99.90;;;;;;4974413;28;20163;-77
2020/12/07 11:06:28;;;;;;;7.83;5.50;;;8.80;99.90;;;;;;4989380;28;20198;-77
2020/12/07 11:08:56;;;;;;;5.10;4.43;;;8.80;99.90;;;;;;4974239;28;20191;-77
2020/12/07 11:11:22;;;;;;;7.78;5.82;;;8.90;99.90;;;;;;4988401;28;20175;-77
2020/12/07 11:13:48;;;;;;;6.72;6.00;;;8.90;99.90;;;;;;4974393;28;20179;-77
2020/12/07 11:16:15;;;;;;;6.47;4.85;;;9.00;99.90;;;;;;4989061;28;20230;-77
2020/12/07 11:18:41;;;;;;;5.68;5.05;;;9.00;99.90;;;;;;4974075;28;20260;-77
2020/12/07 11:21:10;;;;;;;5.50;5.00;;;9.00;99.90;;;;;;4974149;28;20254;-77
2020/12/07 11:23:35;;;;;;;5.47;4.50;;;9.00;99.90;;;;;;4974282;28;20250;-77
2020/12/07 11:26:01;;;;;;;6.60;5.50;;;9.10;99.90;;;;;;4974233;28;20733;-78
2020/12/07 11:28:27;;;;;;;6.60;4.90;;;9.10;99.90;;;;;;4973859;28;20251;-78
2020/12/07 11:30:53;;;;;;;5.60;5.07;;;9.00;99.90;;;;;;4992426;28;21239;-78
2020/12/07 11:33:19;;;;;;;8.47;7.50;;;9.00;99.90;;;;;;4974169;28;20626;-78
2020/12/07 11:35:45;;;;;;;8.20;6.03;;;9.10;99.90;;;;;;4988980;28;20634;-78
2020/12/07 11:38:17;;;;;;;5.17;4.67;;;9.10;99.90;;;;;;4973585;28;20571;-77
2020/12/07 11:43:28;;;;;;;3.80;3.47;;;9.00;99.90;;;;;;4974209;28;20168;-78
2020/12/07 11:45:54;;;;;;;4.78;3.13;;;9.00;99.90;;;;;;4989159;28;20191;-77
2020/12/07 11:48:20;;;;;;;5.70;4.10;;;9.00;99.90;;;;;;4988715;28;20179;-78
2020/12/07 11:50:46;;;;;;;5.05;3.65;;;8.90;99.90;;;;;;4973854;28;20620;-78
2020/12/07 11:53:12;;;;;;;3.60;3.28;;;8.90;99.90;;;;;;4988874;28;20219;-78
2020/12/07 11:55:38;;;;;;;4.60;3.80;;;8.90;99.90;;;;;;4973927;28;20748;-78
2020/12/07 11:58:04;;;;;;;5.83;5.23;;;8.90;99.90;;;;;;4973942;28;20172;-77
2020/12/07 12:00:30;;;;;;;5.10;4.60;;;8.90;99.90;;;;;;4973774;28;20178;-77
2020/12/07 12:02:55;;;;;;;5.90;4.20;;;8.90;99.90;;;;;;4976241;28;20618;-78
2020/12/07 12:05:21;;;;;;;4.33;3.93;;;8.90;99.90;;;;;;4974224;28;20637;-78
2020/12/07 12:07:47;;;;;;;6.00;5.10;;;8.90;99.90;;;;;;4995748;28;20180;-79
2020/12/07 12:10:13;;;;;;;4.90;4.40;;;8.90;99.90;;;;;;4989878;28;20176;-80
2020/12/07 12:12:38;;;;;;;5.40;4.10;;;8.90;99.90;;;;;;4990696;28;20583;-80
2020/12/07 12:15:05;;;;;;;5.70;4.90;;;8.90;99.90;;;;;;4989173;28;20194;-80
2020/12/07 12:17:30;;;;;;;6.60;4.50;;;8.90;99.90;;;;;;4973108;28;20642;-80
2020/12/07 12:19:56;;;;;;;4.73;4.20;;;9.00;99.90;;;;;;4973352;28;20563;-80
2020/12/07 12:22:22;;;;;;;4.97;4.30;;;9.00;99.90;;;;;;4971947;28;20176;-80
2020/12/07 12:24:48;;;;;;;4.57;4.03;;;9.00;99.90;;;;;;4973216;28;20614;-80
2020/12/07 12:27:14;;;;;;;4.55;3.92;;;9.00;99.90;;;;;;4987830;28;20964;-80
2020/12/07 12:29:39;;;;;;;4.37;3.97;;;9.00;99.90;;;;;;4988329;28;20178;-80
2020/12/07 12:32:05;;;;;;;5.10;4.30;;;9.00;99.90;;;;;;4973375;28;20318;-80
2020/12/07 12:34:31;;;;;;;4.97;4.47;;;9.00;99.90;;;;;;4989366;28;20179;-80
2020/12/07 12:36:57;;;;;;;5.03;4.40;;;9.00;99.90;;;;;;4974499;28;20212;-80
2020/12/07 12:39:22;;;;;;;7.03;5.10;;;9.00;99.90;;;;;;4973827;28;20160;-81
2020/12/07 12:41:48;;;;;;;5.13;4.63;;;9.00;99.90;;;;;;4988698;28;20164;-80
2020/12/07 12:44:14;;;;;;;6.00;5.40;;;9.00;99.90;;;;;;4992369;28;20195;-80
2020/12/07 12:46:40;;;;;;;5.87;5.27;;;9.00;99.90;;;;;;4975252;28;20618;-81
2020/12/07 12:49:06;;;;;;;5.97;5.17;;;9.00;99.90;;;;;;4988529;28;20186;-80
2020/12/07 12:51:32;;;;;;;6.57;5.90;;;9.10;99.90;;;;;;4988236;28;20586;-80
2020/12/07 12:54:01;;;;;;;5.97;4.80;;;9.10;99.90;;;;;;4973786;28;20186;-81
2020/12/07 12:56:28;;;;;;;5.20;4.70;;;9.10;99.90;;;;;;4988664;28;20203;-81
2020/12/07 12:58:54;;;;;;;7.18;5.78;;;9.10;99.90;;;;;;4956927;28;20203;-80
2020/12/07 13:01:19;;;;;;;6.70;4.97;;;9.10;99.90;;;;;;4974172;28;20179;-80
2020/12/07 13:03:45;;;;;;;5.20;4.70;;;9.00;99.90;;;;;;4989528;28;20192;-80
2020/12/07 13:06:11;;;;;;;6.43;4.40;;;9.00;99.90;;;;;;4975207;28;20599;-80
2020/12/07 13:08:37;;;;;;;5.50;4.97;;;9.00;99.90;;;;;;4975135;28;20246;-80
2020/12/07 13:11:02;;;;;;;5.20;4.17;;;9.00;99.90;;;;;;4989998;28;20172;-81
2020/12/07 13:13:35;;;;;;;5.50;4.77;;;9.00;99.90;;;;;;4990412;28;20171;-81
2020/12/07 13:16:06;;;;;;;5.88;4.43;;;9.10;99.90;;;;;;4990237;28;20654;-81